Time;durP1;ratioP1;P1;durP2;ratioP2;P2;SDS_P1;SDS_P2;PMS_P1;PMS_P2;Temp;Humidity;BMP_temperature;BMP_pressure;BME280_temperature;BME280_humidity;BME280_pressure;Samples;Min_cycle;Max_cycle;Signal;HPM_P1;HPM_P2
2023/06/23 00:00:20;;;;;;;85.40;81.28;;;;;;;23.29;44.16;101766.31;4995499;28;20034;-73
2023/06/23 00:02:46;;;;;;;86.75;82.35;;;;;;;23.27;44.06;101763.03;4998471;28;20038;-72
2023/06/23 00:05:12;;;;;;;84.22;80.22;;;;;;;23.27;43.80;101768.56;5012228;28;20469;-72
2023/06/23 00:07:39;;;;;;;86.95;82.35;;;;;;;23.25;44.37;101768.03;4999094;28;20022;-71
2023/06/23 00:10:05;;;;;;;83.90;79.60;;;;;;;23.23;43.79;101773.03;4998476;28;20037;-72
2023/06/23 00:12:35;;;;;;;84.13;80.03;;;;;;;23.22;43.84;101777.72;4997712;28;20497;-70
2023/06/23 00:15:05;;;;;;;84.93;80.28;;;;;;;23.20;43.84;101779.16;5005813;28;20030;-72
2023/06/23 00:17:32;;;;;;;85.43;80.82;;;;;;;23.19;43.92;101783.84;5011169;28;20736;-71
2023/06/23 00:19:58;;;;;;;88.78;84.53;;;;;;;23.17;44.31;101782.53;5012458;28;20537;-73
2023/06/23 00:22:23;;;;;;;87.43;83.22;;;;;;;23.16;44.43;101792.72;5008424;28;20034;-72
2023/06/23 00:24:49;;;;;;;88.30;83.90;;;;;;;23.13;44.14;101793.31;5005936;28;20137;-70
2023/06/23 00:27:14;;;;;;;81.13;77.10;;;;;;;23.11;43.88;101796.38;5010106;28;20429;-71
2023/06/23 00:29:40;;;;;;;84.70;80.25;;;;;;;23.11;44.12;101795.56;5004076;28;20795;-72
2023/06/23 00:32:06;;;;;;;84.95;80.53;;;;;;;23.09;44.01;101804.13;5004031;28;20077;-71
2023/06/23 00:34:31;;;;;;;86.18;81.65;;;;;;;23.09;44.51;101808.84;5001619;28;20038;-70
2023/06/23 00:36:56;;;;;;;85.18;80.82;;;;;;;23.05;44.34;101813.28;5010972;28;20037;-71
2023/06/23 00:39:22;;;;;;;84.38;79.93;;;;;;;23.04;44.02;101818.00;5002964;28;20501;-74
2023/06/23 00:41:48;;;;;;;82.80;78.65;;;;;;;23.03;44.35;101821.88;4995133;28;20038;-71
2023/06/23 00:44:14;;;;;;;84.65;80.13;;;;;;;23.02;44.37;101822.19;5012370;28;20496;-71
2023/06/23 00:46:43;;;;;;;88.00;83.57;;;;;;;23.00;44.34;101830.72;5011502;28;20462;-71
2023/06/23 00:49:17;;;;;;;83.93;79.85;;;;;;;22.99;44.43;101829.09;5012610;28;20389;-71
2023/06/23 00:51:44;;;;;;;86.63;82.22;;;;;;;22.98;44.14;101824.72;5002310;28;20636;-72
2023/06/23 00:54:09;;;;;;;88.30;83.88;;;;;;;22.97;44.04;101833.25;4993658;28;20034;-72
2023/06/23 00:56:35;;;;;;;83.03;78.78;;;;;;;22.95;44.41;101827.22;5001356;28;20033;-70
2023/06/23 00:59:02;;;;;;;83.00;78.80;;;;;;;22.94;44.17;101837.41;5006119;28;20120;-70
2023/06/23 01:01:31;;;;;;;84.15;79.80;;;;;;;22.92;43.99;101833.34;5009008;28;20112;-71
2023/06/23 01:03:59;;;;;;;86.43;82.13;;;;;;;22.90;44.19;101836.38;5007983;28;20037;-70
2023/06/23 01:06:37;;;;;;;82.70;78.32;;;;;;;22.90;44.37;101841.88;5010353;28;20508;-74
2023/06/23 01:09:12;;;;;;;;;;;;;;;22.88;43.86;101835.84;5008034;28;20034;-70
2023/06/23 01:11:48;;;;;;;80.35;76.40;;;;;;;22.84;44.25;101841.16;5009197;28;19928;-70
2023/06/23 01:14:30;;;;;;;82.70;78.55;;;;;;;22.82;44.49;101842.56;4999329;28;20030;-71
2023/06/23 01:17:13;;;;;;;82.78;78.20;;;;;;;22.80;44.15;101844.78;4999388;28;20027;-71
2023/06/23 01:19:41;;;;;;;83.20;78.80;;;;;;;22.78;44.45;101850.63;5009654;28;20076;-71
2023/06/23 01:22:12;;;;;;;81.45;77.32;;;;;;;22.77;44.08;101853.66;5006736;28;20030;-70
2023/06/23 01:25:11;;;;;;;82.82;78.53;;;;;;;22.76;44.20;101861.13;4999897;28;20129;-72
2023/06/23 01:27:58;;;;;;;82.47;78.25;;;;;;;22.74;44.18;101871.59;5008109;28;20057;-71
2023/06/23 01:30:27;;;;;;;85.90;81.37;;;;;;;22.72;44.70;101876.59;5009713;28;20104;-71
2023/06/23 01:33:03;;;;;;;83.18;78.88;;;;;;;22.71;44.65;101877.72;5000831;28;20204;-70
2023/06/23 01:35:36;;;;;;;80.57;76.20;;;;;;;22.69;44.41;101889.03;5003941;28;20410;-75
2023/06/23 01:38:18;;;;;;;84.75;80.30;;;;;;;22.68;44.64;101889.34;5003393;28;20065;-70
2023/06/23 01:40:49;;;;;;;83.95;79.35;;;;;;;22.66;44.38;101881.34;5001214;28;20034;-70
2023/06/23 01:43:17;;;;;;;85.80;81.05;;;;;;;22.65;44.59;101889.91;4999237;28;20030;-71
2023/06/23 01:45:43;;;;;;;82.22;78.10;;;;;;;22.63;44.23;101887.47;4992315;28;20069;-72
2023/06/23 01:48:12;;;;;;;83.03;78.90;;;;;;;22.64;44.72;101891.03;5010382;28;20100;-71
2023/06/23 01:50:40;;;;;;;81.63;77.55;;;;;;;22.61;44.06;101886.13;5010114;28;20477;-72
2023/06/23 01:53:07;;;;;;;80.95;76.80;;;;;;;22.60;44.15;101892.72;5009724;28;20087;-71
2023/06/23 01:55:34;;;;;;;85.32;80.68;;;;;;;22.58;44.46;101886.69;4992098;28;20046;-70
2023/06/23 01:58:01;;;;;;;82.90;78.50;;;;;;;22.56;44.11;101884.25;5010521;28;20037;-71
2023/06/23 02:00:27;;;;;;;86.20;81.10;;;;;;;22.56;44.58;101894.44;5009747;28;20034;-71
2023/06/23 02:02:55;;;;;;;81.10;76.80;;;;;;;22.54;44.55;101900.25;5009324;28;20506;-71
2023/06/23 02:05:24;;;;;;;83.32;78.07;;;;;;;22.52;44.27;101901.66;4993186;28;20023;-71
2023/06/23 02:07:51;;;;;;;81.57;77.25;;;;;;;22.52;44.55;101909.91;4997636;28;20058;-71
2023/06/23 02:10:18;;;;;;;84.90;80.30;;;;;;;22.51;44.66;101919.31;5007539;28;20037;-71
2023/06/23 02:12:46;;;;;;;82.60;78.03;;;;;;;22.49;44.21;101919.59;5008193;28;20034;-71
2023/06/23 02:15:14;;;;;;;84.05;79.68;;;;;;;22.46;44.56;101918.25;4998725;28;20037;-70
2023/06/23 02:17:40;;;;;;;;;;;;;;;22.45;44.47;101919.38;5009683;28;20045;-72
2023/06/23 02:20:14;;;;;;;80.00;75.78;;;;;;;22.42;44.13;101925.44;5007901;28;19925;-69
2023/06/23 02:22:44;;;;;;;81.47;77.32;;;;;;;22.41;44.20;101925.75;4993728;28;20029;-72
2023/06/23 02:25:11;;;;;;;79.30;75.13;;;;;;;22.39;44.63;101928.78;5000812;28;20041;-72
2023/06/23 02:27:38;;;;;;;79.45;75.57;;;;;;;22.38;44.18;101931.84;5001952;28;20136;-69
2023/06/23 02:30:06;;;;;;;81.55;77.35;;;;;;;22.37;44.70;101933.75;5005960;28;20032;-71
2023/06/23 02:32:32;;;;;;;79.35;75.22;;;;;;;22.35;44.20;101927.75;5003997;28;20038;-74
2023/06/23 02:34:57;;;;;;;80.25;75.65;;;;;;;22.34;44.05;101934.34;5006448;28;20038;-71
2023/06/23 02:37:26;;;;;;;81.95;77.78;;;;;;;22.33;44.65;101934.66;5004154;28;20401;-70
2023/06/23 02:39:55;;;;;;;83.38;78.85;;;;;;;22.32;44.15;101941.25;5007290;28;20112;-70
2023/06/23 02:42:25;;;;;;;80.97;76.47;;;;;;;22.29;44.57;101939.91;5000833;28;20042;-71
2023/06/23 02:44:56;;;;;;;81.50;77.40;;;;;;;22.28;44.49;101943.78;5005024;28;20093;-70
2023/06/23 02:47:24;;;;;;;79.78;75.38;;;;;;;22.27;44.62;101947.66;5003777;28;20042;-70
2023/06/23 02:49:55;;;;;;;79.60;74.97;;;;;;;22.27;44.25;101955.91;5002867;28;20130;-71
2023/06/23 02:52:23;;;;;;;81.32;77.05;;;;;;;22.25;44.22;101963.63;5009464;28;20042;-71
2023/06/23 02:54:51;;;;;;;85.67;80.80;;;;;;;22.24;44.75;101981.25;5009263;28;20053;-70
2023/06/23 02:57:19;;;;;;;81.90;77.35;;;;;;;22.23;44.40;101976.88;5002903;28;20783;-70
2023/06/23 02:59:46;;;;;;;;;;;;;;;22.22;44.39;101977.97;4997419;28;20026;-70
2023/06/23 03:02:15;;;;;;;79.20;74.85;;;;;;;22.19;44.34;101973.88;4999762;28;20376;-71
2023/06/23 03:04:41;;;;;;;80.20;75.93;;;;;;;22.18;44.46;101979.66;5007057;28;20426;-71
2023/06/23 03:07:10;;;;;;;78.60;73.93;;;;;;;22.18;44.32;101974.16;5010152;28;20034;-70
2023/06/23 03:09:36;;;;;;;;;;;;;;;22.16;44.77;101977.19;5010325;28;20095;-71
2023/06/23 03:12:01;;;;;;;79.30;74.55;;;;;;;22.12;44.81;101976.13;5010649;28;19917;-70
2023/06/23 03:14:27;;;;;;;80.32;75.72;;;;;;;22.12;44.65;101978.06;4992837;28;20065;-71
2023/06/23 03:17:04;;;;;;;79.65;75.05;;;;;;;22.10;44.98;101978.34;4995157;28;20427;-70
2023/06/23 03:19:40;;;;;;;79.35;75.05;;;;;;;22.09;44.93;101975.88;4996668;28;20037;-70
2023/06/23 03:22:05;;;;;;;80.05;75.65;;;;;;;22.08;44.48;101982.50;5009750;28;20439;-71
2023/06/23 03:24:34;;;;;;;77.97;73.88;;;;;;;22.06;44.93;101980.03;5001976;28;20114;-70
2023/06/23 03:27:05;;;;;;;79.78;75.47;;;;;;;22.06;44.88;101970.97;5004862;28;20030;-70
2023/06/23 03:29:36;;;;;;;78.82;74.65;;;;;;;22.04;44.95;101974.81;4999089;28;20117;-70
2023/06/23 03:32:04;;;;;;;80.72;76.43;;;;;;;22.02;44.80;101979.81;5003568;28;20164;-72
2023/06/23 03:34:47;;;;;;;81.03;76.60;;;;;;;22.00;44.84;101968.28;5007958;28;20110;-71
2023/06/23 03:37:15;;;;;;;79.97;75.63;;;;;;;21.99;44.78;101969.38;4996400;28;20045;-70
2023/06/23 03:39:43;;;;;;;78.57;74.32;;;;;;;21.98;45.08;101969.66;5007402;28;20058;-74
2023/06/23 03:42:09;;;;;;;78.88;74.45;;;;;;;21.96;44.88;101967.19;4995510;28;20030;-70
2023/06/23 03:44:46;;;;;;;79.07;74.88;;;;;;;21.95;44.56;101967.50;5005049;28;20033;-70
2023/06/23 03:47:18;;;;;;;80.30;75.47;;;;;;;21.94;44.67;101965.84;4999050;28;20034;-71
2023/06/23 03:49:58;;;;;;;80.22;75.95;;;;;;;21.92;44.71;101971.63;5003646;28;20034;-70
2023/06/23 03:52:27;;;;;;;79.15;74.63;;;;;;;21.90;44.57;101971.13;5009561;28;20026;-70
2023/06/23 03:54:54;;;;;;;;;;;;;;;21.89;44.54;101977.72;5000685;28;20065;-72
2023/06/23 03:57:24;;;;;;;78.82;74.38;;;;;;;21.87;44.52;101973.63;5007797;28;19917;-71
2023/06/23 03:59:51;;;;;;;77.93;73.82;;;;;;;21.85;44.73;101978.56;5011714;28;20121;-70
2023/06/23 04:02:20;;;;;;;77.63;73.37;;;;;;;21.83;44.38;101981.63;5003853;28;20049;-69
2023/06/23 04:04:48;;;;;;;79.95;75.63;;;;;;;21.82;44.80;101988.22;5010149;28;20772;-70
2023/06/23 04:07:14;;;;;;;79.80;74.93;;;;;;;21.80;44.82;101991.28;5010881;28;20175;-71
2023/06/23 04:09:42;;;;;;;79.60;75.03;;;;;;;21.79;44.63;101997.88;5004115;28;20038;-71
2023/06/23 04:12:13;;;;;;;79.28;74.82;;;;;;;21.78;44.79;102000.94;5000052;28;20037;-71
2023/06/23 04:14:41;;;;;;;80.50;75.47;;;;;;;21.77;44.63;102008.38;4999150;28;20113;-74
2023/06/23 04:17:10;;;;;;;80.80;76.30;;;;;;;21.76;44.86;102011.41;5009621;28;20113;-71
2023/06/23 04:19:39;;;;;;;82.65;77.55;;;;;;;21.75;44.59;102013.31;5010030;28;20132;-71
2023/06/23 04:22:07;;;;;;;82.95;78.18;;;;;;;21.74;45.06;102008.91;5007651;28;20120;-72
2023/06/23 04:24:35;;;;;;;81.80;77.13;;;;;;;21.73;45.08;102007.28;5002031;28;20030;-71
2023/06/23 04:27:04;;;;;;;81.72;76.70;;;;;;;21.72;45.02;102005.66;5002394;28;20037;-70
2023/06/23 04:29:30;;;;;;;82.53;77.72;;;;;;;21.72;44.88;102013.06;5006273;28;20050;-71
2023/06/23 04:31:58;;;;;;;81.90;76.85;;;;;;;21.71;45.03;102014.19;5010963;28;20064;-72
2023/06/23 04:34:23;;;;;;;82.53;77.65;;;;;;;21.70;44.97;102021.63;4993260;28;20053;-71
2023/06/23 04:36:54;;;;;;;84.20;79.25;;;;;;;21.69;45.16;102014.47;4993255;28;20042;-71
2023/06/23 04:39:43;;;;;;;80.55;75.50;;;;;;;21.69;44.94;102013.66;5012027;28;20136;-71
2023/06/23 04:42:13;;;;;;;80.47;75.78;;;;;;;21.67;45.10;102018.59;5008412;28;20100;-72
2023/06/23 04:44:47;;;;;;;81.28;76.43;;;;;;;21.66;44.95;102019.72;5000188;28;20124;-71
2023/06/23 04:47:16;;;;;;;82.03;77.05;;;;;;;21.64;44.89;102022.75;5001769;28;20388;-71
2023/06/23 04:49:46;;;;;;;81.43;76.55;;;;;;;21.64;44.90;102028.25;5000018;28;20436;-69
2023/06/23 04:52:15;;;;;;;81.15;76.38;;;;;;;21.61;45.19;102040.63;4993710;28;20077;-71
2023/06/23 04:54:44;;;;;;;82.78;77.78;;;;;;;21.63;44.75;102039.56;4991335;28;20041;-70
2023/06/23 04:57:24;;;;;;;83.68;78.32;;;;;;;21.61;45.25;102042.56;5001424;28;20061;-71
2023/06/23 04:59:53;;;;;;;82.80;77.85;;;;;;;21.60;45.24;102050.00;5009855;28;20533;-71
2023/06/23 05:02:21;;;;;;;82.95;77.85;;;;;;;21.59;45.11;102051.09;5004572;28;20092;-70
2023/06/23 05:04:48;;;;;;;84.57;79.18;;;;;;;21.57;45.21;102053.34;4992833;28;20042;-71
2023/06/23 05:07:16;;;;;;;83.43;78.13;;;;;;;21.57;45.17;102053.34;5004638;28;20120;-70
2023/06/23 05:09:49;;;;;;;81.60;76.60;;;;;;;21.56;44.89;102054.44;5005159;28;20050;-71
2023/06/23 05:12:16;;;;;;;86.65;81.20;;;;;;;21.56;45.03;102059.94;5000044;28;20022;-70
2023/06/23 05:14:44;;;;;;;83.97;78.88;;;;;;;21.57;45.12;102060.75;5004740;28;20029;-72
2023/06/23 05:17:13;;;;;;;83.10;78.05;;;;;;;21.57;45.04;102058.00;5006610;28;20037;-70
2023/06/23 05:19:43;;;;;;;84.82;79.28;;;;;;;21.55;45.05;102061.03;5009324;28;20029;-70
2023/06/23 05:22:13;;;;;;;82.60;77.45;;;;;;;21.56;45.35;102067.34;5007975;28;20026;-70
2023/06/23 05:24:54;;;;;;;80.10;75.47;;;;;;;21.54;45.23;102069.56;5006589;28;20026;-70
2023/06/23 05:27:23;;;;;;;83.65;78.07;;;;;;;21.54;45.30;102077.81;5001876;28;20489;-69
2023/06/23 05:29:54;;;;;;;83.28;78.03;;;;;;;21.53;45.08;102073.44;4998919;28;20027;-72
2023/06/23 05:32:21;;;;;;;82.93;77.80;;;;;;;21.53;45.18;102084.44;4997677;28;20109;-71
2023/06/23 05:34:49;;;;;;;84.68;79.05;;;;;;;21.52;45.16;102089.13;4999545;28;20042;-71
2023/06/23 05:37:18;;;;;;;82.00;76.57;;;;;;;21.52;45.13;102093.75;4993964;28;20519;-70
2023/06/23 05:39:46;;;;;;;84.55;79.45;;;;;;;21.52;45.29;102096.50;5007848;28;20112;-70
2023/06/23 05:42:11;;;;;;;85.45;79.57;;;;;;;21.50;45.36;102094.06;4999137;28;20177;-70
2023/06/23 05:44:37;;;;;;;82.18;77.22;;;;;;;21.50;44.85;102105.06;5008740;28;20430;-71
2023/06/23 05:47:06;;;;;;;84.78;78.90;;;;;;;21.50;45.19;102096.81;4995708;28;20034;-71
2023/06/23 05:49:40;;;;;;;81.13;76.03;;;;;;;21.52;45.29;102099.25;5007102;28;20080;-71
2023/06/23 05:52:08;;;;;;;84.72;79.18;;;;;;;21.52;45.14;102099.25;5006672;28;20026;-70
2023/06/23 05:54:37;;;;;;;;;;;;;;;21.52;45.06;102094.59;5000143;28;20045;-70
2023/06/23 05:57:06;;;;;;;82.85;77.80;;;;;;;21.52;45.50;102105.59;5001401;28;20404;-70
2023/06/23 05:59:39;;;;;;;83.13;77.82;;;;;;;21.53;45.47;102104.50;4990130;28;20081;-70
2023/06/23 06:02:08;;;;;;;85.68;80.47;;;;;;;21.54;45.21;102108.06;5001741;28;20414;-70
2023/06/23 06:04:38;;;;;;;83.55;78.47;;;;;;;21.53;45.49;102112.75;5007451;28;20099;-72
2023/06/23 06:07:05;;;;;;;83.47;77.78;;;;;;;21.52;45.64;102111.09;4999453;28;20034;-71
2023/06/23 06:09:33;;;;;;;83.82;78.50;;;;;;;21.54;45.87;102108.06;4991366;28;20034;-70
2023/06/23 06:11:59;;;;;;;82.90;77.60;;;;;;;21.54;45.77;102111.63;5006200;28;20022;-72
2023/06/23 06:14:28;;;;;;;81.43;76.50;;;;;;;21.56;45.36;102105.84;5007557;28;20034;-70
2023/06/23 06:16:55;;;;;;;85.10;79.35;;;;;;;21.57;46.01;102111.06;5003041;28;20140;-74
2023/06/23 06:19:22;;;;;;;82.10;77.10;;;;;;;21.58;45.81;102109.97;5007882;28;20041;-70
2023/06/23 06:21:49;;;;;;;76.63;72.63;;;;;;;21.59;45.50;102114.34;5007966;28;20705;-69
2023/06/23 06:24:18;;;;;;;83.80;77.75;;;;;;;21.59;45.90;102114.34;5006449;28;20202;-70
2023/06/23 06:26:46;;;;;;;84.13;78.82;;;;;;;21.60;45.66;102115.19;5007175;28;20052;-69
2023/06/23 06:29:14;;;;;;;79.65;74.78;;;;;;;21.61;45.82;102128.63;5000735;28;20034;-70
2023/06/23 06:31:41;;;;;;;84.20;78.95;;;;;;;21.63;45.91;102119.28;4999729;28;20039;-69
2023/06/23 06:34:08;;;;;;;80.93;76.10;;;;;;;21.65;46.28;102122.59;4997832;28;20061;-70
2023/06/23 06:36:36;;;;;;;77.50;72.75;;;;;;;21.68;45.85;102122.00;4999709;28;20058;-69
2023/06/23 06:39:04;;;;;;;80.97;75.90;;;;;;;21.70;46.44;102128.06;5002896;28;20057;-70
2023/06/23 06:41:35;;;;;;;82.18;76.90;;;;;;;21.73;46.59;102138.47;4999575;28;20042;-70
2023/06/23 06:44:02;;;;;;;84.75;79.25;;;;;;;21.74;46.59;102138.19;4987326;28;20121;-70
2023/06/23 06:46:29;;;;;;;80.63;75.35;;;;;;;21.77;46.45;102139.53;4999923;28;20044;-70
2023/06/23 06:48:56;;;;;;;87.00;81.25;;;;;;;21.79;46.83;102145.59;4992114;28;20053;-70
2023/06/23 06:51:22;;;;;;;85.72;79.95;;;;;;;21.82;46.67;102145.00;5009054;28;20104;-70
2023/06/23 06:53:48;;;;;;;88.15;82.05;;;;;;;21.85;46.63;102147.22;4991506;28;20361;-70
2023/06/23 06:56:14;;;;;;;83.85;78.82;;;;;;;21.87;47.29;102158.72;5004332;28;20042;-70
2023/06/23 06:58:40;;;;;;;85.60;80.07;;;;;;;21.89;47.41;102153.78;5007205;28;20045;-70
2023/06/23 07:01:06;;;;;;;80.82;75.97;;;;;;;21.92;46.76;102161.44;5008076;28;20100;-69
2023/06/23 07:03:35;;;;;;;83.18;78.13;;;;;;;21.93;47.04;102157.59;4990717;28;20121;-70
2023/06/23 07:06:01;;;;;;;83.90;78.93;;;;;;;21.95;47.09;102158.16;4989568;28;20023;-73
2023/06/23 07:08:26;;;;;;;85.30;79.70;;;;;;;21.98;47.17;102162.25;5006666;28;20072;-71
2023/06/23 07:10:52;;;;;;;83.90;78.40;;;;;;;22.00;47.35;102169.13;5006742;28;20435;-71
2023/06/23 07:13:17;;;;;;;85.68;80.22;;;;;;;22.03;47.81;102168.53;4996388;28;20106;-70
2023/06/23 07:15:43;;;;;;;91.95;86.40;;;;;;;22.08;48.10;102173.19;5000583;28;20049;-70
2023/06/23 07:18:08;;;;;;;87.03;81.43;;;;;;;22.11;48.31;102167.09;5004124;28;20037;-70
2023/06/23 07:20:34;;;;;;;85.05;80.03;;;;;;;22.14;47.86;102171.22;5012866;28;20438;-71
2023/06/23 07:22:59;;;;;;;85.05;79.93;;;;;;;22.17;48.30;102174.22;5009954;28;20038;-71
2023/06/23 07:25:25;;;;;;;88.15;82.57;;;;;;;22.20;48.27;102178.34;5003548;28;20077;-72
2023/06/23 07:27:50;;;;;;;89.28;83.75;;;;;;;22.23;48.36;102178.63;5009947;28;20058;-72
2023/06/23 07:30:16;;;;;;;89.47;84.00;;;;;;;22.28;48.31;102176.94;4998774;28;20054;-71
2023/06/23 07:32:45;;;;;;;86.75;81.43;;;;;;;22.31;48.71;102177.19;5000685;28;20038;-71
2023/06/23 07:35:11;;;;;;;85.63;80.88;;;;;;;22.35;48.77;102182.91;5011256;28;20381;-71
2023/06/23 07:37:38;;;;;;;88.13;82.93;;;;;;;22.39;48.66;102173.00;5011339;28;20034;-71
2023/06/23 07:40:05;;;;;;;87.68;82.15;;;;;;;22.44;48.86;102181.19;5008412;28;20140;-74
2023/06/23 07:42:30;;;;;;;87.40;81.72;;;;;;;22.50;48.93;102195.75;4992354;28;20050;-71
2023/06/23 07:44:56;;;;;;;91.15;85.28;;;;;;;22.55;48.61;102187.44;4999276;28;20104;-71
2023/06/23 07:47:21;;;;;;;91.45;85.47;;;;;;;22.60;48.74;102185.47;4990680;28;20438;-71
2023/06/23 07:49:47;;;;;;;89.32;83.25;;;;;;;22.65;48.89;102184.59;5007218;28;20046;-71
2023/06/23 07:52:12;;;;;;;91.28;85.43;;;;;;;22.70;49.38;102187.31;5008775;28;20049;-72
2023/06/23 07:54:39;;;;;;;92.65;87.15;;;;;;;22.73;48.78;102192.25;5006417;28;20042;-72
2023/06/23 07:57:08;;;;;;;90.15;84.65;;;;;;;22.79;48.87;102193.03;5007736;28;20073;-76
2023/06/23 07:59:34;;;;;;;85.50;80.80;;;;;;;22.84;49.32;102193.78;5005320;28;20044;-71
2023/06/23 08:01:59;;;;;;;90.25;84.85;;;;;;;22.89;49.19;102192.91;4994291;28;20401;-70
2023/06/23 08:04:25;;;;;;;91.07;85.50;;;;;;;22.95;48.92;102188.16;4998116;28;20516;-71
2023/06/23 08:06:50;;;;;;;91.00;85.95;;;;;;;23.00;49.10;102188.16;4999019;28;20034;-71
2023/06/23 08:09:16;;;;;;;92.32;86.85;;;;;;;23.06;49.43;102195.25;4992250;28;20061;-72
2023/06/23 08:11:41;;;;;;;91.18;85.85;;;;;;;23.13;49.08;102192.13;4992480;28;20038;-72
2023/06/23 08:14:07;;;;;;;96.63;89.57;;;;;;;23.20;49.10;102200.88;4995755;28;20034;-74
2023/06/23 08:16:32;;;;;;;93.95;88.80;;;;;;;23.26;49.21;102196.97;5009356;28;20112;-71
2023/06/23 08:18:58;;;;;;;92.88;87.47;;;;;;;23.31;49.33;102196.91;5011683;28;20109;-71
2023/06/23 08:21:23;;;;;;;89.78;85.07;;;;;;;23.38;49.30;102200.13;5007208;28;20378;-71
2023/06/23 08:23:49;;;;;;;93.72;88.32;;;;;;;23.43;49.16;102200.03;4992046;28;20439;-72
2023/06/23 08:26:15;;;;;;;93.95;88.65;;;;;;;23.50;49.28;102200.50;4990802;28;20042;-72
2023/06/23 08:28:41;;;;;;;100.57;94.82;;;;;;;23.58;49.16;102196.28;4999354;28;20552;-70
2023/06/23 08:31:06;;;;;;;96.93;91.63;;;;;;;23.65;49.29;102202.25;4996075;28;20059;-70
2023/06/23 08:33:33;;;;;;;92.50;87.65;;;;;;;23.72;49.21;102204.66;5009107;28;20053;-71
2023/06/23 08:35:58;;;;;;;93.03;88.03;;;;;;;23.79;49.35;102201.56;5013489;28;20537;-70
2023/06/23 08:38:24;;;;;;;91.90;86.90;;;;;;;23.86;48.84;102210.28;5012588;28;20125;-70
2023/06/23 08:40:50;;;;;;;97.65;92.05;;;;;;;23.93;49.17;102202.47;5012634;28;20061;-70
2023/06/23 08:43:23;;;;;;;96.47;91.43;;;;;;;24.01;48.77;102209.25;5011167;28;20038;-70
2023/06/23 08:45:54;;;;;;;94.28;89.50;;;;;;;24.08;48.79;102215.22;5000089;28;20026;-71
2023/06/23 08:48:24;;;;;;;97.57;92.18;;;;;;;24.15;48.59;102210.97;5002145;28;20026;-71
2023/06/23 08:50:50;;;;;;;97.57;92.57;;;;;;;24.24;48.49;102210.28;5003414;28;20488;-71
2023/06/23 08:53:16;;;;;;;96.90;91.70;;;;;;;24.32;48.47;102218.72;5010516;28;20062;-70
2023/06/23 08:55:41;;;;;;;99.50;94.10;;;;;;;24.40;49.02;102222.75;5011718;28;20045;-70
2023/06/23 08:58:08;;;;;;;101.00;95.95;;;;;;;24.50;48.89;102227.31;5011522;28;20037;-71
2023/06/23 09:00:34;;;;;;;101.60;96.53;;;;;;;24.57;48.88;102227.75;5011310;28;20539;-71
2023/06/23 09:03:00;;;;;;;100.05;94.72;;;;;;;24.65;48.69;102231.78;5005725;28;20033;-71
2023/06/23 09:05:25;;;;;;;100.18;95.03;;;;;;;24.73;48.19;102240.19;4995153;28;20042;-70
2023/06/23 09:07:51;;;;;;;98.22;93.35;;;;;;;24.81;48.40;102235.91;4995452;28;20101;-72
2023/06/23 09:10:18;;;;;;;101.88;96.95;;;;;;;24.89;47.83;102249.03;4999188;28;20038;-71
2023/06/23 09:13:23;;;;;;;98.57;93.65;;;;;;;24.98;47.81;102238.09;5000143;28;20037;-71
2023/06/23 09:15:50;;;;;;;99.85;94.90;;;;;;;25.05;48.16;102242.09;5003134;28;20022;-71
2023/06/23 09:18:16;;;;;;;104.47;99.30;;;;;;;25.14;48.06;102247.72;4996750;28;20034;-72
2023/06/23 09:20:47;;;;;;;103.07;97.63;;;;;;;25.22;47.71;102247.09;4993795;28;20042;-72
2023/06/23 09:23:16;;;;;;;105.72;100.40;;;;;;;25.31;47.37;102252.72;5000624;28;20084;-74
2023/06/23 09:25:48;;;;;;;102.75;97.90;;;;;;;25.40;47.82;102253.66;5010830;28;20062;-71
2023/06/23 09:28:26;;;;;;;103.07;98.13;;;;;;;25.50;47.64;102257.31;4994693;28;20030;-71
2023/06/23 09:30:53;;;;;;;105.07;100.03;;;;;;;25.58;47.45;102251.09;4995533;28;20034;-71
2023/06/23 09:33:20;;;;;;;103.65;98.90;;;;;;;25.67;47.20;102266.63;5008342;28;20030;-71
2023/06/23 09:35:51;;;;;;;107.13;102.03;;;;;;;25.75;47.51;102265.09;4993431;28;20117;-71
2023/06/23 09:38:18;;;;;;;106.07;101.10;;;;;;;25.84;47.26;102265.19;4993914;28;20125;-72
2023/06/23 09:40:43;;;;;;;108.32;103.07;;;;;;;25.93;46.69;102262.53;5007412;28;20096;-72
2023/06/23 09:43:09;;;;;;;102.45;98.00;;;;;;;26.02;46.65;102260.69;5011263;28;20037;-72
2023/06/23 09:45:34;;;;;;;103.97;98.97;;;;;;;26.11;46.48;102261.59;5009930;28;20284;-72
2023/06/23 09:48:00;;;;;;;107.93;102.85;;;;;;;26.21;46.50;102263.31;5002249;28;20105;-70
2023/06/23 09:51:05;;;;;;;114.28;108.88;;;;;;;26.30;46.61;102262.22;5096403;27;20405;-72
2023/06/23 09:53:32;;;;;;;112.00;106.68;;;;;;;26.40;46.19;102258.41;5099071;28;20101;-73
2023/06/23 09:55:59;;;;;;;114.65;109.43;;;;;;;26.51;46.19;102254.28;5100784;28;20507;-73
2023/06/23 09:58:28;;;;;;;113.60;108.40;;;;;;;26.60;46.25;102262.66;5097025;28;20032;-70
2023/06/23 10:01:09;;;;;;;114.03;108.47;;;;;;;26.70;45.72;102264.38;5102847;28;20055;-72
2023/06/23 10:03:44;;;;;;;109.63;104.85;;;;;;;26.81;45.91;102262.16;5096858;28;20122;-72
2023/06/23 10:06:28;;;;;;;112.35;107.05;;;;;;;26.90;45.21;102257.47;5100605;28;20428;-72
2023/06/23 10:08:56;;;;;;;113.68;108.38;;;;;;;26.97;45.13;102261.44;5089697;28;20422;-71
2023/06/23 10:11:32;;;;;;;116.33;110.87;;;;;;;27.09;44.94;102263.63;5091679;28;20119;-72
2023/06/23 10:14:05;;;;;;;120.63;115.03;;;;;;;27.18;44.73;102263.69;5086024;28;20051;-72
2023/06/23 10:16:31;;;;;;;118.30;112.78;;;;;;;27.27;45.01;102260.97;5091622;28;20099;-71
2023/06/23 10:18:57;;;;;;;120.00;114.35;;;;;;;27.35;44.42;102263.78;5086130;28;20029;-71
2023/06/23 10:21:23;;;;;;;120.43;115.07;;;;;;;27.45;44.73;102268.22;5088257;28;20416;-72
2023/06/23 10:23:50;;;;;;;119.55;114.15;;;;;;;27.52;44.86;102267.78;5097308;28;20059;-70
2023/06/23 10:26:18;;;;;;;121.60;115.93;;;;;;;27.58;44.47;102258.94;5092566;28;20052;-72
2023/06/23 10:28:46;;;;;;;129.48;123.25;;;;;;;27.67;44.10;102253.44;5104377;28;20471;-72
2023/06/23 10:31:12;;;;;;;121.38;115.95;;;;;;;27.77;43.99;102258.69;5105212;28;20032;-72
2023/06/23 10:33:40;;;;;;;122.82;117.05;;;;;;;27.85;43.53;102253.50;5105170;28;20056;-71
2023/06/23 10:36:08;;;;;;;125.65;119.35;;;;;;;27.93;43.64;102261.84;5103137;28;20476;-72
2023/06/23 10:38:34;;;;;;;125.68;119.68;;;;;;;28.00;43.51;102264.16;5088682;28;20480;-72
2023/06/23 10:41:01;;;;;;;127.63;121.75;;;;;;;28.08;43.42;102273.63;5109613;28;20035;-69
2023/06/23 10:43:32;;;;;;;130.88;124.70;;;;;;;28.15;43.20;102266.44;5105784;28;20031;-71
2023/06/23 10:46:00;;;;;;;128.55;122.97;;;;;;;28.22;42.96;102272.34;5092088;28;20451;-69
2023/06/23 10:48:29;;;;;;;131.05;125.07;;;;;;;28.29;42.92;102266.28;5093511;28;20063;-71
2023/06/23 10:50:55;;;;;;;128.98;123.15;;;;;;;28.36;42.68;102268.56;5097374;28;20063;-71
2023/06/23 10:53:28;;;;;;;129.70;123.47;;;;;;;28.45;42.05;102272.19;5090296;28;20102;-71
2023/06/23 10:55:56;;;;;;;127.10;121.22;;;;;;;28.54;41.97;102273.00;5099452;28;20485;-71
2023/06/23 10:58:23;;;;;;;132.43;126.38;;;;;;;28.61;42.12;102273.31;5103982;28;20096;-73
2023/06/23 11:00:54;;;;;;;128.38;122.53;;;;;;;28.67;41.91;102272.00;5080314;28;20131;-71
2023/06/23 11:03:24;;;;;;;132.68;126.53;;;;;;;28.76;41.98;102285.09;5072868;28;20062;-73
2023/06/23 11:05:54;;;;;;;132.65;126.75;;;;;;;28.80;42.68;102289.63;5072362;28;20033;-71
2023/06/23 11:08:27;;;;;;;132.00;126.18;;;;;;;28.87;42.33;102286.34;5083526;28;20040;-71
2023/06/23 11:10:59;;;;;;;134.00;128.10;;;;;;;28.94;42.01;102283.09;5090956;28;20176;-72
2023/06/23 11:13:35;;;;;;;133.50;127.43;;;;;;;29.01;40.88;102289.78;5088784;28;20142;-72
2023/06/23 11:16:02;;;;;;;133.70;127.40;;;;;;;29.08;41.46;102286.50;5080071;28;20074;-71